MV Sukran S — TCKB — position and weather

sailwx.info

Track history (hours):
 
Tides and Currents Weather Stations Pressure Air Temp Water Temp Dewpoint Dewpoint Depression Visibility Wind Speed Wind Dir Waves Ship Positions

MV Sukran S

Last reported at 2014-Oct-19 19:31 UTC. Time now 2014-Oct-20 13:17 UTC.
Position N 41°02' E 029°00'.

Length 108 m; draft 4.2 m.

Type: Cargo ship. MMSI: 271000056.

Date/timePositionNaut miles runAvg speedWind from/ knotsBaromVisibWave heightAir tempDewpointWater temp
2014-Oct-19 19:31N 41°02' E 029°00'6 6.4
2014-Oct-19 18:33N 40°56' E 028°56'2 1.9
2014-Oct-19 17:15N 40°59' E 028°56'0 0.0
2014-Oct-19 15:26N 40°59' E 028°56'0 0.0
2014-Oct-19 14:20N 40°59' E 028°56'0 0.0
2014-Oct-19 13:28N 40°59' E 028°56'0 0.0
2014-Oct-19 12:04N 40°59' E 028°56'0 0.0
2014-Oct-19 11:34N 40°59' E 028°56'0 0.0
2014-Oct-19 10:27N 40°59' E 028°56'0 0.0
2014-Oct-19 09:33N 40°59' E 028°56'0 0.1
2014-Oct-19 08:32N 40°59' E 028°56'0 0.0
2014-Oct-19 07:32N 40°59' E 028°56'0 0.0
2014-Oct-19 06:25N 40°59' E 028°56'0 0.0
2014-Oct-19 05:31N 40°59' E 028°56'0 0.0
2014-Oct-19 04:30N 40°59' E 028°56'0 0.0
2014-Oct-19 03:18N 40°59' E 028°56'0 0.0
2014-Oct-19 02:30N 40°59' E 028°56'0 0.1
2014-Oct-19 01:32N 40°59' E 028°56'0 0.0
2014-Oct-19 00:31N 40°59' E 028°56'0 0.0
2014-Oct-18 23:24N 40°59' E 028°56'1 1.5
2014-Oct-18 22:33N 40°58' E 028°57'8 7.8
2014-Oct-18 21:33N 40°52' E 028°51'10 9.8
2014-Oct-18 20:32N 40°46' E 028°40'  
Track history (hours):
 
Tides and Currents Weather Stations Pressure Air Temp Water Temp Dewpoint Dewpoint Depression Visibility Wind Speed Wind Dir Waves Ship Positions

MV Sukran S

Last reported at 2014-Oct-19 19:31 UTC. Time now 2014-Oct-20 13:17 UTC.
Position N 41°02' E 029°00'.

Length 108 m; draft 4.2 m.

Type: Cargo ship. MMSI: 271000056.

Date/timePositionNaut miles runAvg speedWind from/ knotsBaromVisibWave heightAir tempDewpointWater temp
2014-Oct-19 19:31N 41°02' E 029°00'6 6.4
2014-Oct-19 18:33N 40°56' E 028°56'2 1.9
2014-Oct-19 17:15N 40°59' E 028°56'0 0.0
2014-Oct-19 15:26N 40°59' E 028°56'0 0.0
2014-Oct-19 14:20N 40°59' E 028°56'0 0.0
2014-Oct-19 13:28N 40°59' E 028°56'0 0.0
2014-Oct-19 12:04N 40°59' E 028°56'0 0.0
2014-Oct-19 11:34N 40°59' E 028°56'0 0.0
2014-Oct-19 10:27N 40°59' E 028°56'0 0.0
2014-Oct-19 09:33N 40°59' E 028°56'0 0.1
2014-Oct-19 08:32N 40°59' E 028°56'0 0.0
2014-Oct-19 07:32N 40°59' E 028°56'0 0.0
2014-Oct-19 06:25N 40°59' E 028°56'0 0.0
2014-Oct-19 05:31N 40°59' E 028°56'0 0.0
2014-Oct-19 04:30N 40°59' E 028°56'0 0.0
2014-Oct-19 03:18N 40°59' E 028°56'0 0.0
2014-Oct-19 02:30N 40°59' E 028°56'0 0.1
2014-Oct-19 01:32N 40°59' E 028°56'0 0.0
2014-Oct-19 00:31N 40°59' E 028°56'0 0.0
2014-Oct-18 23:24N 40°59' E 028°56'1 1.5
2014-Oct-18 22:33N 40°58' E 028°57'8 7.8
2014-Oct-18 21:33N 40°52' E 028°51'10 9.8
2014-Oct-18 20:32N 40°46' E 028°40'  

Dump ship's entire track history